createdAt,value
2023-02-28T14:49:18.285Z,1023.53
2023-02-28T14:50:19.247Z,1023.55
2023-02-28T14:51:19.142Z,1023.54
2023-02-28T14:52:19.200Z,1023.51
2023-02-28T14:53:19.062Z,1023.54
2023-02-28T14:54:19.100Z,1023.58
2023-02-28T14:55:18.972Z,1023.52
2023-02-28T14:56:58.472Z,1023.56
2023-02-28T14:57:59.459Z,1023.54
2023-02-28T14:58:59.355Z,1023.55
2023-02-28T15:00:12.302Z,1023.55
2023-02-28T15:01:13.281Z,1023.52
2023-02-28T15:02:13.160Z,1023.50
2023-02-28T15:03:13.199Z,1023.52
2023-02-28T15:04:13.087Z,1023.50
2023-02-28T15:05:13.132Z,1023.48
2023-02-28T15:06:13.038Z,1023.48
2023-02-28T15:07:29.400Z,1023.48
2023-02-28T15:08:30.406Z,1023.52
2023-02-28T15:09:30.196Z,1023.52
2023-02-28T15:10:30.235Z,1023.51
2023-02-28T15:11:30.573Z,1023.48
2023-02-28T15:12:30.364Z,1023.49
2023-02-28T15:13:30.069Z,1023.53
2023-02-28T15:14:30.277Z,1023.57
2023-02-28T15:15:36.119Z,1023.54
2023-02-28T15:16:30.326Z,1023.55
2023-02-28T15:17:29.899Z,1023.60
2023-02-28T15:18:29.934Z,1023.59
2023-02-28T15:19:29.822Z,1023.55
2023-02-28T15:20:29.871Z,1023.56
2023-02-28T15:21:29.739Z,1023.52
2023-02-28T15:22:29.780Z,1023.49
2023-02-28T15:23:29.665Z,1023.54
2023-02-28T15:24:29.693Z,1023.48
2023-02-28T15:25:29.576Z,1023.54
2023-02-28T15:26:30.056Z,1023.56
2023-02-28T15:27:29.507Z,1023.54
2023-02-28T15:28:29.581Z,1023.56
2023-02-28T15:29:29.430Z,1023.60
2023-02-28T15:30:29.466Z,1023.51
2023-02-28T15:31:33.580Z,1023.50
2023-02-28T15:32:29.552Z,1023.54
2023-02-28T15:33:29.275Z,1023.51
2023-02-28T15:34:36.929Z,1023.56
2023-02-28T15:39:48.139Z,1023.55
2023-02-28T15:40:42.101Z,1023.50
2023-02-28T15:41:44.066Z,1023.56
2023-02-28T15:42:43.030Z,1023.58
2023-02-28T15:43:42.925Z,1023.58
2023-02-28T15:44:42.980Z,1023.54
2023-02-28T15:45:42.966Z,1023.60
2023-02-28T15:46:42.876Z,1023.53
2023-02-28T15:47:42.759Z,1023.53
2023-02-28T15:48:42.793Z,1023.53
2023-02-28T15:49:45.254Z,1023.55
2023-02-28T15:50:42.700Z,1023.55
2023-02-28T15:51:42.637Z,1023.55
2023-02-28T15:52:42.617Z,1023.54
2023-02-28T15:53:42.494Z,1023.54
2023-02-28T15:54:42.544Z,1023.60
2023-02-28T15:55:42.399Z,1023.60
2023-02-28T15:56:42.406Z,1023.55
2023-02-28T15:57:42.276Z,1023.58
2023-02-28T15:58:42.319Z,1023.57
2023-02-28T15:59:42.177Z,1023.62
2023-02-28T16:00:42.205Z,1023.61
2023-02-28T16:01:42.162Z,1023.60
2023-02-28T16:02:42.285Z,1023.58
2023-02-28T16:03:41.990Z,1023.59
2023-02-28T16:04:42.003Z,1023.59
2023-02-28T16:05:41.883Z,1023.58
2023-02-28T16:06:41.903Z,1023.59
2023-02-28T16:07:41.794Z,1023.61
2023-02-28T16:08:41.803Z,1023.68
2023-02-28T16:09:41.688Z,1023.64
2023-02-28T16:10:41.718Z,1023.60
2023-02-28T16:11:41.588Z,1023.69
2023-02-28T16:12:41.624Z,1023.67
2023-02-28T16:13:41.493Z,1023.65
2023-02-28T16:14:41.526Z,1023.66
2023-02-28T16:15:41.394Z,1023.69
2023-02-28T16:16:41.471Z,1023.71
2023-02-28T16:17:41.291Z,1023.71
2023-02-28T16:18:41.337Z,1023.68
2023-02-28T16:19:41.194Z,1023.72
2023-02-28T16:20:41.217Z,1023.74
2023-02-28T16:21:41.090Z,1023.67
2023-02-28T16:22:41.108Z,1023.74
2023-02-28T16:23:40.987Z,1023.72
2023-02-28T16:24:41.006Z,1023.71
2023-02-28T16:25:40.872Z,1023.72
2023-02-28T16:26:40.897Z,1023.72
2023-02-28T16:27:40.776Z,1023.72
2023-02-28T16:28:40.793Z,1023.69
2023-02-28T16:29:40.664Z,1023.67
2023-02-28T16:30:40.757Z,1023.67
2023-02-28T16:31:40.567Z,1023.67
2023-02-28T16:32:40.584Z,1023.66
2023-02-28T16:33:40.460Z,1023.71
2023-02-28T16:34:40.486Z,1023.72
2023-02-28T16:35:40.355Z,1023.71
2023-02-28T16:36:40.384Z,1023.69
2023-02-28T16:37:40.259Z,1023.75
2023-02-28T16:38:40.281Z,1023.72
2023-02-28T16:39:40.160Z,1023.71
2023-02-28T16:40:40.186Z,1023.75
2023-02-28T16:41:40.075Z,1023.77
2023-02-28T16:42:40.100Z,1023.77
2023-02-28T16:43:39.970Z,1023.80
2023-02-28T16:44:40.002Z,1023.82
2023-02-28T16:45:47.658Z,1023.83
